X  Close Metar Aviation Weather Data     EBBR Brussels
Temperature
27°C Temperature
7°C Dewpoint
28% Humidity



Wind
11 KM/H
7 MPH
3 M/S
6 KTS



310°
NW
Current Conditions

Clear Clear
Pressure 1015.92 (hPa) - 30 (inHg)
Visibility 6.2 (mile) - 10 (km)
Airport
Airport-code EBBR

Location: Brussels
Distance: 14 (km)

Metar:
EBBR 021320Z 31006KT 270V350 CAVOK 27/07 Q1016 NOSIG

Time: 06-02-2020 15:20 CEST